Salamonie, Indiana
Current Conditions -  °F | °C
As of 1:35 PM on Monday 20 Oct 2014 (Local Time) from KHHG Reporting Station
Thunderstorm Thunderstorm  
Wind Chill: 55°   Ceiling: 1700
Heat Index: 55°   Visibility: 10mi
Dew Point: 50°   Wind: 6mph
Humidity: 82%   Direction: 240°WSW
Pressure: 29.82"   Gusts: NA
Location:  40.6897°N, 85.3916°W
Report Text: KHHG 201735Z AUTO 24005KT 10SM VCTS OVC017 13/10 A2982 RMK AO2 LTG DSNT S T01300100
Loading
Personal Weather Stations






























Interactive Weather Map
Tropical Storm Tracking
New forecast layout! Learn more

10-Day Weather Forecast

Advertisements
Track Severe Weather on mobile